Time;durP1;ratioP1;P1;durP2;ratioP2;P2;SDS_P1;SDS_P2;PMS_P1;PMS_P2;Temp;Humidity;BMP_temperature;BMP_pressure;BME280_temperature;BME280_humidity;BME280_pressure;Samples;Min_cycle;Max_cycle;Signal;HPM_P1;HPM_P2
2023/01/23 00:01:25;;;;;;;22.00;10.30;;;;;;;2.46;71.57;102462.27;108007;1254;73993;-70
2023/01/23 00:03:53;;;;;;;22.40;11.40;;;;;;;2.46;71.54;102463.02;108063;1259;74058;-70
2023/01/23 00:06:20;;;;;;;20.70;10.70;;;;;;;2.45;71.49;102463.84;107996;1259;59824;-70
2023/01/23 00:08:47;;;;;;;21.30;11.00;;;;;;;2.43;71.62;102462.65;107921;1254;60975;-72
2023/01/23 00:11:20;;;;;;;22.70;10.90;;;;;;;2.42;71.61;102467.63;107903;1255;73786;-71
2023/01/23 00:13:47;;;;;;;19.70;10.20;;;;;;;2.43;71.66;102469.61;108190;1254;74796;-71
2023/01/23 00:16:16;;;;;;;19.80;10.10;;;;;;;2.44;71.67;102474.30;107867;1260;72685;-71
2023/01/23 00:18:43;;;;;;;18.10;9.70;;;;;;;2.45;71.69;102474.73;107900;1254;61067;-70
2023/01/23 00:21:13;;;;;;;16.20;8.30;;;;;;;2.47;71.62;102473.62;107934;1254;62437;-70
2023/01/23 00:23:46;;;;;;;18.20;9.90;;;;;;;2.50;71.76;102472.91;108001;1254;74283;-70
2023/01/23 00:26:15;;;;;;;19.30;9.70;;;;;;;2.55;71.70;102475.05;108070;1256;73346;-69
2023/01/23 00:28:43;;;;;;;21.90;10.70;;;;;;;2.59;71.71;102477.64;107976;1256;72769;-71
2023/01/23 00:31:17;;;;;;;19.90;9.60;;;;;;;2.63;71.70;102479.25;107803;1254;62464;-70
2023/01/23 00:33:44;;;;;;;17.70;9.00;;;;;;;2.65;71.61;102482.36;108096;1254;61698;-70
2023/01/23 00:36:12;;;;;;;18.10;9.90;;;;;;;2.68;71.80;102482.73;108126;1255;75136;-70
2023/01/23 00:38:39;;;;;;;21.40;10.50;;;;;;;2.74;71.67;102479.83;108030;1255;73597;-70
2023/01/23 00:41:06;;;;;;;21.00;10.10;;;;;;;2.77;71.60;102477.93;107986;1254;75416;-72
2023/01/23 00:43:33;;;;;;;18.70;9.80;;;;;;;2.77;71.57;102474.93;107964;1254;62321;-72
2023/01/23 00:46:00;;;;;;;19.90;10.30;;;;;;;2.75;71.40;102473.27;107869;1254;61614;-69
2023/01/23 00:48:28;;;;;;;18.00;9.00;;;;;;;2.75;71.40;102470.02;107903;1259;75400;-70
2023/01/23 00:50:55;;;;;;;19.60;10.00;;;;;;;2.80;71.61;102470.09;108085;1254;71961;-70
2023/01/23 00:53:22;;;;;;;19.40;10.00;;;;;;;2.85;71.62;102470.84;107642;1254;73877;-71
2023/01/23 00:55:49;;;;;;;15.30;8.30;;;;;;;2.91;71.47;102469.35;107782;1254;62594;-71
2023/01/23 00:58:17;;;;;;;17.20;8.60;;;;;;;2.93;71.35;102469.45;107947;1254;61687;-71
2023/01/23 01:00:44;;;;;;;14.70;7.50;;;;;;;2.89;71.06;102471.62;107987;1254;72386;-71
2023/01/23 01:03:11;;;;;;;17.50;8.80;;;;;;;2.86;71.05;102473.02;107761;1254;73684;-69
2023/01/23 01:05:40;;;;;;;14.50;8.20;;;;;;;2.81;71.06;102476.10;107999;1255;74016;-70
2023/01/23 01:08:07;;;;;;;16.20;8.70;;;;;;;2.79;71.00;102476.63;107970;1254;63202;-70
2023/01/23 01:10:34;;;;;;;16.50;8.70;;;;;;;2.81;71.09;102479.83;108072;1254;60166;-71
2023/01/23 01:13:04;;;;;;;15.30;8.30;;;;;;;2.85;71.00;102474.17;107995;1254;75954;-71
2023/01/23 01:15:31;;;;;;;16.10;8.20;;;;;;;2.89;71.22;102470.44;107953;1254;72935;-70
2023/01/23 01:17:58;;;;;;;13.20;8.20;;;;;;;2.92;71.16;102471.05;108003;1254;72122;-71
2023/01/23 01:20:26;;;;;;;14.60;7.60;;;;;;;2.92;71.04;102467.05;108027;1254;62296;-70
2023/01/23 01:22:54;;;;;;;12.30;6.80;;;;;;;2.87;70.92;102469.83;107830;1256;61202;-70
2023/01/23 01:25:21;;;;;;;13.50;7.20;;;;;;;2.86;71.01;102468.20;108101;1254;72471;-71
2023/01/23 01:27:48;;;;;;;12.50;7.20;;;;;;;2.86;71.03;102463.30;107950;1259;73335;-72
2023/01/23 01:30:16;;;;;;;12.30;7.20;;;;;;;2.83;71.02;102457.45;108064;1254;73598;-69
2023/01/23 01:32:46;;;;;;;13.00;6.80;;;;;;;2.81;71.05;102460.08;107964;1255;61411;-71
2023/01/23 01:35:13;;;;;;;13.40;7.30;;;;;;;2.82;71.10;102463.69;107956;1254;60295;-70
2023/01/23 01:37:40;;;;;;;12.50;6.80;;;;;;;2.83;71.12;102458.66;107967;1254;72477;-70
2023/01/23 01:40:11;;;;;;;11.70;6.60;;;;;;;2.85;71.21;102458.80;107741;1261;74867;-69
2023/01/23 01:42:52;;;;;;;12.20;6.80;;;;;;;2.83;71.03;102457.27;108035;1256;71997;-70
2023/01/23 01:45:57;;;;;;;13.50;7.60;;;;;;;2.81;71.11;102457.14;107912;1256;62301;-69
2023/01/23 01:48:44;;;;;;;11.90;6.40;;;;;;;2.37;72.22;102457.90;107768;1254;62162;-69
2023/01/23 01:51:15;;;;;;;12.70;7.80;;;;;;;2.31;72.69;102462.75;107731;1254;76146;-69
2023/01/23 01:53:42;;;;;;;15.70;8.10;;;;;;;2.29;72.93;102464.08;107957;1254;72112;-69
2023/01/23 01:56:10;;;;;;;13.80;8.20;;;;;;;2.27;73.14;102464.73;107736;1256;74585;-69
2023/01/23 01:58:37;;;;;;;14.90;7.90;;;;;;;2.27;73.38;102466.20;108024;1254;63042;-69
2023/01/23 02:01:05;;;;;;;13.90;7.50;;;;;;;2.29;73.42;102467.17;107938;1256;61701;-69
2023/01/23 02:03:32;;;;;;;15.20;7.90;;;;;;;2.30;73.41;102464.79;108015;1254;75855;-69
2023/01/23 02:05:59;;;;;;;13.00;7.30;;;;;;;2.27;73.53;102461.38;107987;1254;75097;-70
2023/01/23 02:08:47;;;;;;;15.20;7.80;;;;;;;2.22;73.64;102461.77;107874;1258;74960;-69
2023/01/23 02:11:17;;;;;;;12.70;6.80;;;;;;;2.19;73.76;102460.86;107879;1254;60965;-69
2023/01/23 02:13:44;;;;;;;15.50;7.30;;;;;;;2.17;73.91;102462.97;107867;1254;62270;-70
2023/01/23 02:16:20;;;;;;;14.40;7.50;;;;;;;2.16;74.05;102465.91;107911;1254;74977;-70
2023/01/23 02:18:49;;;;;;;13.60;7.60;;;;;;;2.15;74.30;102458.92;108004;1254;73841;-70
2023/01/23 02:21:19;;;;;;;13.50;7.50;;;;;;;2.15;74.06;102460.20;107948;1258;72374;-70
2023/01/23 02:23:53;;;;;;;12.60;7.00;;;;;;;2.16;74.19;102457.81;107998;1255;62046;-70
2023/01/23 02:26:26;;;;;;;14.70;7.20;;;;;;;2.17;74.32;102454.90;107980;1254;62627;-71
2023/01/23 02:28:54;;;;;;;14.60;8.30;;;;;;;2.20;74.34;102451.95;108011;1254;72051;-71
2023/01/23 02:31:25;;;;;;;15.00;7.50;;;;;;;2.22;74.25;102454.52;107941;1256;73093;-70
2023/01/23 02:33:57;;;;;;;14.50;7.30;;;;;;;2.23;74.21;102449.52;107952;1256;74748;-70
2023/01/23 02:36:26;;;;;;;13.80;7.40;;;;;;;2.25;74.23;102449.29;107988;1254;63563;-70
2023/01/23 02:39:07;;;;;;;14.30;7.10;;;;;;;2.28;74.30;102451.48;107928;1254;60351;-70
2023/01/23 02:41:38;;;;;;;14.10;7.20;;;;;;;2.28;74.35;102444.27;108102;1254;76110;-69
2023/01/23 02:44:27;;;;;;;13.90;7.30;;;;;;;2.30;74.17;102442.63;107957;1254;73305;-70
2023/01/23 02:47:02;;;;;;;14.50;7.50;;;;;;;2.35;74.17;102444.63;108057;1254;70796;-70
2023/01/23 02:49:30;;;;;;;;;;;;;;;2.67;73.41;102443.78;107926;1256;61408;-69
2023/01/23 02:51:58;;;;;;;;;;;;;;;2.75;73.10;102443.98;107924;1255;61187;-70
2023/01/23 02:54:25;;;;;;;;;;;;;;;2.74;72.72;102437.31;107720;1254;75584;-70
2023/01/23 02:56:52;;;;;;;;;;;;;;;2.69;72.42;102441.84;107943;1256;71626;-70
2023/01/23 03:02:06;;;;;;;;;;;;;;;2.63;72.42;102447.35;108015;1255;63031;-71
2023/01/23 03:04:34;;;;;;;;;;;;;;;2.63;72.42;102448.80;108037;1255;60002;-71
2023/01/23 03:07:01;;;;;;;;;;;;;;;2.64;72.42;102447.48;108057;1254;72336;-70
2023/01/23 03:09:28;;;;;;;;;;;;;;;2.65;72.20;102444.56;108003;1254;75113;-71
2023/01/23 03:11:55;;;;;;;;;;;;;;;2.66;72.27;102445.16;107920;1256;74869;-71
2023/01/23 03:14:22;;;;;;;;;;;;;;;2.66;72.36;102444.92;107867;1254;62276;-70
2023/01/23 03:16:52;;;;;;;;;;;;;;;2.68;72.23;102446.89;107991;1256;60400;-71
2023/01/23 03:19:22;;;;;;;;;;;;;;;2.65;71.86;102445.45;107972;1254;76046;-71
2023/01/23 03:21:49;;;;;;;;;;;;;;;2.60;71.64;102444.70;108023;1254;72573;-71
2023/01/23 03:24:16;;;;;;;;;;;;;;;2.54;71.52;102448.05;108076;1260;72724;-70
2023/01/23 03:26:44;;;;;;;;;;;;;;;2.54;71.58;102447.02;108043;1254;63222;-70
2023/01/23 03:32:00;;;;;;;;;;;;;;;2.56;71.41;102448.23;108063;1254;74721;-71
2023/01/23 03:34:27;;;;;;;;;;;;;;;2.59;71.18;102455.19;108104;1258;75060;-69
2023/01/23 03:36:54;;;;;;;;;;;;;;;2.64;71.32;102458.66;108061;1254;72156;-70
2023/01/23 03:42:08;;;;;;;;;;;;;;;2.69;71.27;102466.45;108056;1255;62266;-70
2023/01/23 03:44:35;;;;;;;;;;;;;;;2.70;71.18;102464.40;107892;1255;75933;-69
2023/01/23 03:47:02;;;;;;;;;;;;;;;2.73;71.07;102465.66;107952;1256;72622;-70
2023/01/23 03:49:29;;;;;;;;;;;;;;;2.77;71.20;102462.86;108059;1255;74728;-71
2023/01/23 03:51:57;;;;;;;;;;;;;;;2.79;71.03;102466.13;108097;1254;63123;-69
2023/01/23 03:54:24;;;;;;;;;;;;;;;2.81;71.11;102465.02;108043;1255;60364;-71
2023/01/23 03:56:52;;;;;;;;;;;;;;;2.80;70.98;102463.23;108040;1256;74127;-69
2023/01/23 03:59:42;;;;;;;;;;;;;;;2.76;71.01;102459.88;107769;1256;71837;-71
2023/01/23 04:13:52;;;;;;;16.00;9.80;;;;;;;2.81;71.31;102466.98;105927;1281;612261;-70
2023/01/23 04:16:21;;;;;;;16.20;9.50;;;;;;;3.21;70.36;102471.45;107276;1264;130097;-70
2023/01/23 04:18:49;;;;;;;18.20;10.30;;;;;;;3.13;70.36;102472.09;107461;1260;60699;-69
2023/01/23 04:21:16;;;;;;;17.90;9.80;;;;;;;3.10;70.41;102472.41;107642;1260;73917;-70
2023/01/23 04:23:43;;;;;;;15.70;9.00;;;;;;;3.07;70.39;102479.37;107544;1260;74033;-70
2023/01/23 04:26:12;;;;;;;18.90;10.40;;;;;;;3.08;70.61;102477.39;107624;1260;74649;-69
2023/01/23 04:28:39;;;;;;;15.70;8.60;;;;;;;3.08;70.47;102480.92;107514;1260;61100;-70
2023/01/23 04:31:08;;;;;;;16.60;9.20;;;;;;;3.06;70.51;102485.48;107651;1260;62621;-71
2023/01/23 04:33:35;;;;;;;17.00;8.40;;;;;;;3.05;70.56;102486.45;107647;1260;74212;-70
2023/01/23 04:36:03;;;;;;;20.60;10.20;;;;;;;3.04;70.66;102489.16;107659;1266;73867;-70
2023/01/23 04:38:31;;;;;;;18.70;9.20;;;;;;;3.05;70.65;102488.04;107643;1263;73616;-70
2023/01/23 04:41:15;;;;;;;17.70;9.50;;;;;;;3.04;70.72;102489.52;107670;1260;63347;-70
2023/01/23 04:43:42;;;;;;;21.00;9.90;;;;;;;2.99;70.71;102493.56;107648;1263;62625;-70
2023/01/23 04:46:09;;;;;;;15.30;8.20;;;;;;;3.00;70.70;102493.01;108328;1254;73300;-71
2023/01/23 04:48:59;;;;;;;14.60;7.60;;;;;;;3.00;70.68;102496.84;108405;1254;74490;-70
2023/01/23 04:51:26;;;;;;;14.00;7.90;;;;;;;2.95;70.69;102498.92;108271;1253;74980;-70
2023/01/23 04:53:54;;;;;;;14.00;8.40;;;;;;;2.93;70.78;102497.23;108232;1253;61543;-70
2023/01/23 04:56:21;;;;;;;12.60;7.60;;;;;;;2.92;70.69;102497.86;108120;1254;59573;-69
2023/01/23 04:58:48;;;;;;;13.50;7.60;;;;;;;2.89;70.61;102499.78;108235;1254;75044;-70
2023/01/23 05:01:21;;;;;;;15.40;8.10;;;;;;;2.85;70.66;102502.97;108330;1254;73911;-70
2023/01/23 05:03:52;;;;;;;12.40;6.90;;;;;;;2.82;70.70;102500.78;108186;1254;72088;-70
2023/01/23 05:06:19;;;;;;;13.60;7.40;;;;;;;2.81;70.93;102501.60;108291;1253;60790;-71
2023/01/23 05:08:47;;;;;;;14.20;7.40;;;;;;;2.79;70.87;102503.02;108239;1253;62521;-70
2023/01/23 05:11:22;;;;;;;12.40;7.30;;;;;;;2.78;70.98;102505.31;108228;1254;75194;-70
2023/01/23 05:13:49;;;;;;;11.50;7.10;;;;;;;2.81;70.99;102512.71;108144;1254;74967;-70
2023/01/23 05:16:17;;;;;;;12.20;7.00;;;;;;;2.82;71.01;102512.23;108227;1254;72856;-72
2023/01/23 05:19:10;;;;;;;12.30;6.90;;;;;;;2.83;71.14;102513.23;108182;1254;62082;-69
2023/01/23 05:21:37;;;;;;;12.00;6.90;;;;;;;2.86;71.22;102514.67;108307;1254;60286;-71
2023/01/23 05:24:05;;;;;;;12.70;6.80;;;;;;;2.85;71.13;102520.89;108205;1254;74471;-71
2023/01/23 05:26:33;;;;;;;13.70;7.80;;;;;;;2.85;71.20;102524.09;108263;1254;71121;-69
2023/01/23 05:29:01;;;;;;;14.10;7.20;;;;;;;2.88;71.24;102523.80;108235;1254;74547;-69
2023/01/23 05:31:28;;;;;;;14.30;7.40;;;;;;;2.96;71.34;102528.23;108042;1254;62210;-69
2023/01/23 05:34:34;;;;;;;13.00;7.00;;;;;;;3.06;71.24;102526.46;107738;1260;61063;-70
2023/01/23 05:37:02;;;;;;;11.50;6.50;;;;;;;3.08;71.17;102527.95;107657;1259;73067;-70
2023/01/23 05:39:33;;;;;;;12.00;6.30;;;;;;;3.05;71.06;102529.02;107981;1253;74990;-72
2023/01/23 05:42:00;;;;;;;11.80;6.10;;;;;;;3.05;70.88;102530.28;108192;1254;73045;-69
2023/01/23 05:44:48;;;;;;;11.90;6.30;;;;;;;3.06;70.75;102529.83;108257;1254;62510;-70
2023/01/23 05:47:26;;;;;;;12.50;6.40;;;;;;;3.08;70.76;102531.25;108135;1254;60752;-70
2023/01/23 05:49:54;;;;;;;11.00;5.60;;;;;;;3.09;70.81;102531.29;108236;1253;75048;-70
2023/01/23 05:52:23;;;;;;;10.90;5.50;;;;;;;3.10;70.71;102534.48;108193;1254;75210;-70
2023/01/23 05:54:50;;;;;;;11.40;5.70;;;;;;;3.12;70.67;102533.50;108190;1254;73777;-71
2023/01/23 05:57:17;;;;;;;11.00;6.00;;;;;;;3.12;70.63;102536.61;108156;1253;61833;-69
2023/01/23 06:00:07;;;;;;;10.00;4.90;;;;;;;3.16;70.48;102542.58;108243;1254;62620;-70
2023/01/23 06:02:52;;;;;;;10.20;5.70;;;;;;;3.20;70.63;102547.64;108100;1254;75096;-70
2023/01/23 06:05:22;;;;;;;11.40;5.80;;;;;;;3.21;70.63;102549.76;108148;1254;74283;-70
2023/01/23 06:08:05;;;;;;;9.60;5.40;;;;;;;3.24;70.56;102550.73;108119;1253;71721;-70
2023/01/23 06:10:32;;;;;;;10.80;6.10;;;;;;;3.24;70.44;102548.41;108104;1253;59851;-72
2023/01/23 06:12:59;;;;;;;10.90;6.40;;;;;;;3.26;70.50;102550.98;107814;1253;59227;-69
2023/01/23 06:15:26;;;;;;;11.50;7.20;;;;;;;3.29;70.41;102554.92;108245;1254;71420;-70
2023/01/23 06:17:54;;;;;;;14.80;7.00;;;;;;;3.33;70.50;102551.88;108175;1254;72757;-70
2023/01/23 06:20:21;;;;;;;11.00;6.70;;;;;;;3.40;70.40;102550.64;108163;1257;72753;-69
2023/01/23 06:22:48;;;;;;;13.20;7.50;;;;;;;3.39;70.33;102546.35;108018;1254;60988;-69
2023/01/23 06:25:17;;;;;;;10.10;6.40;;;;;;;3.38;70.19;102549.94;108186;1253;59501;-71
2023/01/23 06:27:44;;;;;;;9.70;6.10;;;;;;;3.35;69.90;102549.67;108200;1254;73151;-69
2023/01/23 06:30:12;;;;;;;11.40;6.20;;;;;;;3.30;69.95;102550.09;108272;1253;74384;-69
2023/01/23 06:32:40;;;;;;;9.80;5.60;;;;;;;3.23;69.85;102553.59;108237;1254;74822;-68
2023/01/23 06:35:08;;;;;;;11.40;6.70;;;;;;;3.18;69.84;102554.13;108152;1254;63840;-73
2023/01/23 06:37:38;;;;;;;12.00;6.20;;;;;;;3.20;70.04;102557.48;108271;1254;62393;-70
2023/01/23 06:40:11;;;;;;;10.50;5.90;;;;;;;3.19;69.95;102562.95;108190;1253;72483;-70
2023/01/23 06:42:46;;;;;;;10.30;6.20;;;;;;;3.29;69.74;102566.48;108117;1254;73024;-69
2023/01/23 06:45:13;;;;;;;10.50;6.40;;;;;;;3.26;69.70;102570.02;108065;1254;73816;-69
2023/01/23 06:47:40;;;;;;;10.30;6.70;;;;;;;3.13;69.84;102569.83;108052;1254;60582;-69
2023/01/23 06:50:08;;;;;;;11.60;6.90;;;;;;;3.12;69.71;102570.44;108116;1254;61663;-70
2023/01/23 06:52:36;;;;;;;9.00;5.60;;;;;;;3.17;69.77;102571.13;108114;1254;71737;-70
2023/01/23 06:55:04;;;;;;;10.60;6.50;;;;;;;3.10;69.95;102578.79;108085;1254;73699;-70
2023/01/23 06:57:32;;;;;;;10.00;6.00;;;;;;;3.11;70.02;102580.02;108046;1258;72548;-70
2023/01/23 07:00:00;;;;;;;10.00;5.40;;;;;;;3.10;69.97;102578.53;108245;1253;61355;-70
2023/01/23 07:02:28;;;;;;;8.70;4.70;;;;;;;3.09;69.96;102582.02;108283;1254;62506;-70
2023/01/23 07:04:56;;;;;;;7.20;4.30;;;;;;;3.09;69.96;102586.94;108120;1254;75331;-70
2023/01/23 07:07:23;;;;;;;7.60;4.40;;;;;;;3.23;69.56;102590.27;108041;1254;73204;-70
2023/01/23 07:09:50;;;;;;;8.40;4.40;;;;;;;3.10;69.80;102586.67;108092;1254;73624;-70
2023/01/23 07:12:24;;;;;;;8.60;5.00;;;;;;;3.04;69.80;102589.65;108005;1254;63021;-69
2023/01/23 07:14:51;;;;;;;8.00;4.40;;;;;;;3.06;69.94;102591.11;108090;1254;59489;-70
2023/01/23 07:17:22;;;;;;;8.60;4.70;;;;;;;3.09;69.94;102592.77;108217;1254;74932;-70
2023/01/23 07:19:49;;;;;;;6.00;3.90;;;;;;;3.12;69.85;102594.70;108232;1253;72808;-70
2023/01/23 07:22:18;;;;;;;7.20;4.00;;;;;;;3.14;69.84;102596.27;108421;1254;73453;-69
2023/01/23 07:24:45;;;;;;;7.60;4.80;;;;;;;3.15;69.83;102598.64;108164;1253;61475;-69
2023/01/23 07:27:12;;;;;;;9.40;4.80;;;;;;;3.16;69.86;102599.43;108007;1253;59660;-69
2023/01/23 07:29:39;;;;;;;8.10;4.60;;;;;;;3.17;69.74;102605.30;108238;1253;73264;-71
2023/01/23 07:32:06;;;;;;;8.60;5.00;;;;;;;3.18;69.69;102603.05;108218;1252;71385;-70
2023/01/23 07:34:36;;;;;;;10.70;5.00;;;;;;;3.20;69.66;102608.14;108214;1254;75116;-70
2023/01/23 07:37:03;;;;;;;8.40;4.30;;;;;;;3.21;69.77;102610.15;108129;1254;60910;-70
2023/01/23 07:39:31;;;;;;;8.60;4.70;;;;;;;3.24;69.68;102610.18;107974;1254;60594;-70
2023/01/23 07:41:58;;;;;;;8.10;4.40;;;;;;;3.27;69.76;102603.56;108152;1254;74982;-70
2023/01/23 07:44:27;;;;;;;9.10;5.30;;;;;;;3.28;69.62;102602.70;108097;1254;73546;-70
2023/01/23 07:46:54;;;;;;;11.70;5.90;;;;;;;3.28;69.68;102603.56;108159;1254;76586;-70
2023/01/23 07:49:21;;;;;;;12.10;6.20;;;;;;;3.34;69.74;102603.88;108175;1253;63436;-70
2023/01/23 07:51:48;;;;;;;9.80;5.20;;;;;;;3.42;69.71;102605.80;108180;1254;61168;-70
2023/01/23 07:54:16;;;;;;;11.00;6.10;;;;;;;3.49;69.62;102605.47;108159;1254;73421;-69
2023/01/23 07:56:43;;;;;;;10.70;6.00;;;;;;;3.51;69.40;102611.97;108247;1254;72999;-70
2023/01/23 07:59:11;;;;;;;11.70;6.30;;;;;;;3.52;69.45;102616.77;108195;1254;71141;-69
2023/01/23 08:01:38;;;;;;;11.70;6.20;;;;;;;3.55;69.29;102614.89;108014;1260;60464;-69
2023/01/23 08:04:06;;;;;;;9.70;4.90;;;;;;;3.55;69.27;102618.06;108168;1260;60302;-70
2023/01/23 08:06:33;;;;;;;7.20;4.80;;;;;;;3.54;69.03;102619.25;108119;1258;73300;-69
2023/01/23 08:09:00;;;;;;;7.70;4.60;;;;;;;3.57;69.01;102621.27;108168;1254;71365;-69
2023/01/23 08:11:27;;;;;;;8.70;5.00;;;;;;;3.61;69.06;102619.98;108214;1254;71122;-69
2023/01/23 08:13:54;;;;;;;7.90;4.80;;;;;;;3.67;69.07;102621.02;108230;1254;59611;-69
2023/01/23 08:16:21;;;;;;;7.60;4.50;;;;;;;3.72;68.80;102622.13;108271;1253;60972;-70
2023/01/23 08:18:48;;;;;;;7.50;4.90;;;;;;;3.69;68.29;102623.85;108223;1254;73964;-70
2023/01/23 08:21:15;;;;;;;8.50;4.90;;;;;;;3.61;68.14;102624.30;108196;1254;73218;-70
2023/01/23 08:23:42;;;;;;;10.90;4.90;;;;;;;3.58;68.03;102627.52;108150;1254;71042;-70
2023/01/23 08:26:10;;;;;;;9.50;5.70;;;;;;;3.57;68.10;102629.86;108067;1253;63104;-70
2023/01/23 10:00:05;;;;;;;12.90;7.70;;;;;;;2.67;76.88;102623.29;104906;1291;613520;-79
2023/01/23 10:02:32;;;;;;;;;;;;;;;3.45;72.78;102618.05;107590;1257;117418;-79
2023/01/23 10:05:01;;;;;;;14.50;7.90;;;;;;;3.44;72.06;102621.35;107712;1257;61843;-79
2023/01/23 10:07:50;;;;;;;12.80;7.50;;;;;;;3.44;71.19;102623.23;107674;1257;74551;-79
2023/01/23 10:10:54;;;;;;;13.80;7.80;;;;;;;3.41;70.23;102622.17;107790;1258;71784;-81
2023/01/23 10:13:35;;;;;;;11.90;7.60;;;;;;;3.43;69.77;102621.45;107977;1257;74980;-79
2023/01/23 10:16:24;;;;;;;11.00;6.90;;;;;;;3.46;69.38;102620.05;107831;1257;62041;-78
2023/01/23 10:19:07;;;;;;;14.10;7.40;;;;;;;3.49;68.88;102615.98;107832;1257;59534;-78
2023/01/23 10:22:02;;;;;;;13.00;7.70;;;;;;;3.52;68.56;102616.08;108021;1256;72274;-80
2023/01/23 10:25:09;;;;;;;13.70;7.50;;;;;;;3.62;68.50;102610.27;108000;1256;74532;-78
2023/01/23 10:27:42;;;;;;;14.40;8.90;;;;;;;3.69;67.91;102604.31;107986;1260;73348;-79
2023/01/23 10:30:27;;;;;;;17.20;8.90;;;;;;;3.69;67.50;102605.69;107774;1257;61795;-78
2023/01/23 10:33:08;;;;;;;17.20;9.30;;;;;;;3.72;67.51;102596.74;108005;1257;61117;-78
2023/01/23 10:36:13;;;;;;;14.80;8.40;;;;;;;3.81;67.49;102596.50;108062;1256;73289;-79
2023/01/23 10:39:08;;;;;;;13.10;8.00;;;;;;;3.86;66.96;102590.80;107476;1262;73045;-79
2023/01/23 10:41:35;;;;;;;15.50;8.40;;;;;;;3.92;66.63;102584.27;107909;1258;73241;-79
2023/01/23 10:44:09;;;;;;;16.50;8.90;;;;;;;3.95;66.54;102583.83;107936;1257;60116;-79
2023/01/23 10:46:57;;;;;;;17.40;8.90;;;;;;;4.03;66.43;102583.25;107874;1257;62136;-78
2023/01/23 10:49:30;;;;;;;14.80;9.40;;;;;;;4.10;66.18;102585.19;107927;1257;74963;-80
2023/01/23 10:51:57;;;;;;;14.80;9.90;;;;;;;4.14;66.14;102579.08;107908;1258;71080;-79
2023/01/23 10:54:27;;;;;;;16.30;9.30;;;;;;;4.21;65.90;102576.86;107880;1258;73310;-80
2023/01/23 10:57:15;;;;;;;16.40;8.20;;;;;;;4.23;65.62;102575.39;107912;1257;61777;-78
2023/01/23 11:00:07;;;;;;;17.20;9.30;;;;;;;4.20;65.40;102576.84;107797;1263;61666;-78
2023/01/23 11:02:36;;;;;;;15.60;9.00;;;;;;;4.19;65.35;102571.30;107926;1262;72941;-80
2023/01/23 11:05:39;;;;;;;18.30;9.30;;;;;;;4.18;65.33;102578.61;108030;1257;70590;-78
2023/01/23 11:08:28;;;;;;;12.90;8.10;;;;;;;4.25;65.26;102576.16;107935;1257;72925;-79
2023/01/23 11:11:26;;;;;;;14.00;8.60;;;;;;;4.26;65.14;102574.64;107958;1256;59500;-80
2023/01/23 11:14:11;;;;;;;16.40;10.10;;;;;;;4.20;64.75;102569.04;107970;1257;61166;-79
2023/01/23 11:16:39;;;;;;;15.80;9.20;;;;;;;4.14;64.66;102569.91;108271;1257;73273;-78
2023/01/23 11:19:09;;;;;;;15.20;9.40;;;;;;;4.13;64.78;102570.23;108131;1257;72328;-78
2023/01/23 11:21:54;;;;;;;15.30;9.20;;;;;;;4.15;64.95;102568.02;108172;1257;73644;-78
2023/01/23 11:24:26;;;;;;;17.50;9.30;;;;;;;4.21;64.93;102569.81;107998;1263;60025;-78
2023/01/23 11:27:29;;;;;;;14.10;8.30;;;;;;;4.26;64.83;102573.25;108016;1257;60267;-78
2023/01/23 11:30:26;;;;;;;14.10;8.80;;;;;;;4.27;64.69;102573.11;107929;1257;72149;-78
2023/01/23 11:33:38;;;;;;;15.90;8.70;;;;;;;4.30;64.56;102573.65;107868;1257;72001;-78
2023/01/23 11:36:16;;;;;;;15.70;9.30;;;;;;;4.36;64.63;102565.52;107657;1257;73872;-80
2023/01/23 11:38:48;;;;;;;17.00;9.60;;;;;;;4.43;64.50;102564.13;107808;1257;59857;-78
2023/01/23 11:41:19;;;;;;;15.80;9.10;;;;;;;4.47;64.30;102558.88;107842;1257;60044;-79
2023/01/23 16:02:22;;;;;;;33.10;19.60;;;;;;;2.58;79.94;102641.71;106030;1280;612933;-71
2023/01/23 16:05:02;;;;;;;36.00;19.10;;;;;;;3.42;75.91;102634.20;107782;1262;115759;-69
2023/01/23 16:07:33;;;;;;;36.50;18.10;;;;;;;3.46;75.21;102635.70;108034;1257;59336;-71
2023/01/23 16:10:23;;;;;;;30.50;17.10;;;;;;;3.50;74.51;102636.38;107983;1257;71366;-69
2023/01/23 16:12:53;;;;;;;33.70;16.40;;;;;;;3.52;73.43;102632.63;107972;1257;72292;-70
2023/01/23 16:15:26;;;;;;;30.10;15.80;;;;;;;3.50;72.86;102635.81;107994;1257;72165;-71
2023/01/23 16:17:55;;;;;;;28.30;15.90;;;;;;;3.51;72.27;102631.20;108007;1257;59897;-70
2023/01/23 16:20:42;;;;;;;31.10;15.90;;;;;;;3.51;71.82;102625.55;107916;1256;60273;-70
2023/01/23 16:23:25;;;;;;;31.50;16.80;;;;;;;3.53;71.36;102627.27;107999;1257;72269;-70
2023/01/23 16:26:03;;;;;;;27.70;15.50;;;;;;;3.51;70.56;102626.89;107856;1257;72225;-70
2023/01/23 16:28:31;;;;;;;28.20;15.70;;;;;;;3.47;70.08;102628.33;107960;1257;72924;-71
2023/01/23 16:31:00;;;;;;;32.40;16.80;;;;;;;3.44;69.88;102629.91;107971;1257;62261;-71
2023/01/23 16:33:30;;;;;;;28.90;15.50;;;;;;;3.46;69.70;102630.16;107997;1257;59611;-71
2023/01/23 16:35:58;;;;;;;35.40;15.50;;;;;;;3.47;69.42;102634.18;107978;1257;72167;-71
2023/01/23 16:38:27;;;;;;;27.80;15.30;;;;;;;3.48;69.35;102635.64;107743;1257;71883;-69
2023/01/23 16:40:58;;;;;;;28.60;15.80;;;;;;;3.47;68.77;102636.86;107925;1256;73791;-70
2023/01/23 16:43:26;;;;;;;28.60;15.50;;;;;;;3.43;68.70;102634.70;107984;1257;60165;-70
2023/01/23 16:45:56;;;;;;;27.20;15.30;;;;;;;3.45;68.69;102645.84;107966;1257;59696;-70
2023/01/23 16:48:25;;;;;;;26.20;14.40;;;;;;;3.50;68.58;102637.84;107984;1257;73996;-70
2023/01/23 16:51:04;;;;;;;28.80;15.40;;;;;;;3.49;68.38;102639.29;107929;1257;72907;-70
2023/01/23 16:53:37;;;;;;;30.60;15.70;;;;;;;3.47;68.12;102638.23;107887;1257;73783;-71
2023/01/23 16:56:05;;;;;;;30.40;16.20;;;;;;;3.44;67.97;102641.54;108262;1254;61507;-70
2023/01/23 16:58:38;;;;;;;31.80;16.60;;;;;;;3.42;67.94;102643.54;108281;1254;59624;-72
2023/01/23 17:01:09;;;;;;;32.10;17.50;;;;;;;3.42;67.92;102637.60;108261;1259;74055;-71
2023/01/23 17:03:39;;;;;;;32.10;16.60;;;;;;;3.48;67.97;102637.10;108222;1254;72370;-71
2023/01/23 17:06:15;;;;;;;31.00;17.30;;;;;;;3.49;67.81;102640.02;108182;1253;72288;-70
2023/01/23 17:08:43;;;;;;;30.70;17.50;;;;;;;3.48;67.73;102642.59;108190;1254;61118;-70
2023/01/23 17:11:17;;;;;;;30.90;17.30;;;;;;;3.48;67.68;102645.35;108164;1254;60352;-70
2023/01/23 17:13:46;;;;;;;31.40;16.80;;;;;;;3.53;67.78;102646.45;108172;1254;73795;-70
2023/01/23 17:16:15;;;;;;;37.80;19.00;;;;;;;3.55;67.55;102649.08;108179;1254;72535;-70
2023/01/23 17:18:56;;;;;;;35.40;18.60;;;;;;;3.52;67.44;102647.59;108068;1254;73621;-71
2023/01/23 17:21:26;;;;;;;33.90;17.60;;;;;;;3.52;67.48;102650.27;108181;1254;62153;-70
2023/01/23 17:23:54;;;;;;;38.60;18.70;;;;;;;3.55;67.30;102644.36;108205;1254;61212;-69
2023/01/23 17:26:23;;;;;;;34.50;19.10;;;;;;;3.50;67.17;102643.41;108174;1254;72092;-69
2023/01/23 17:28:51;;;;;;;39.10;19.20;;;;;;;3.42;67.09;102648.60;108233;1254;73222;-69
2023/01/23 17:31:23;;;;;;;36.40;18.50;;;;;;;3.39;67.12;102648.45;108194;1254;70620;-71
2023/01/23 17:33:54;;;;;;;35.00;18.70;;;;;;;3.33;67.16;102645.73;108199;1254;61222;-71
2023/01/23 17:36:26;;;;;;;39.10;19.80;;;;;;;3.32;67.33;102645.55;108156;1253;59656;-71
2023/01/23 17:38:56;;;;;;;34.20;17.90;;;;;;;3.33;67.37;102649.99;108132;1254;72342;-70
2023/01/23 17:41:27;;;;;;;33.00;17.80;;;;;;;3.32;67.35;102650.59;108129;1254;72152;-71
2023/01/23 17:43:56;;;;;;;37.20;18.80;;;;;;;3.32;67.49;102648.67;108115;1254;72540;-69
2023/01/23 17:46:26;;;;;;;39.30;19.40;;;;;;;3.32;67.45;102652.33;108175;1256;61146;-70
2023/01/23 17:48:55;;;;;;;38.60;19.80;;;;;;;3.33;67.54;102653.70;108170;1254;60343;-69
2023/01/23 17:51:23;;;;;;;37.80;19.60;;;;;;;3.33;67.41;102652.27;108121;1254;73285;-70
2023/01/23 17:53:52;;;;;;;36.90;19.10;;;;;;;3.33;67.52;102649.80;108175;1254;73857;-70
2023/01/23 17:56:20;;;;;;;40.80;19.20;;;;;;;3.37;67.46;102648.01;108093;1254;72665;-71